createdAt,value
2017-10-28T00:00:20.729Z,3.90
2017-10-28T00:02:49.059Z,4.13
2017-10-28T00:05:17.395Z,4.20
2017-10-28T00:07:46.495Z,5.00
2017-10-28T00:10:14.800Z,4.37
2017-10-28T00:12:43.127Z,5.10
2017-10-28T00:15:11.451Z,5.57
2017-10-28T00:17:40.502Z,5.70
2017-10-28T00:20:09.582Z,5.40
2017-10-28T00:22:38.070Z,4.50
2017-10-28T00:25:06.401Z,3.87
2017-10-28T00:27:34.700Z,4.47
2017-10-28T00:30:09.500Z,3.93
2017-10-28T00:46:01.708Z,3.77
2017-10-28T00:48:30.005Z,5.30
2017-10-28T00:50:58.330Z,4.60
2017-10-28T00:53:26.633Z,4.23
2017-10-28T00:55:54.954Z,4.40
2017-10-28T00:58:23.281Z,4.10
2017-10-28T01:00:51.582Z,3.90
2017-10-28T01:03:19.928Z,4.47
2017-10-28T01:05:48.263Z,4.80
2017-10-28T01:08:16.544Z,4.47
2017-10-28T01:10:44.851Z,3.57
2017-10-28T01:13:13.363Z,5.00
2017-10-28T01:15:41.689Z,3.73
2017-10-28T01:18:10.003Z,4.10
2017-10-28T01:20:38.325Z,3.60
2017-10-28T01:23:06.612Z,3.90
2017-10-28T01:25:34.935Z,4.07
2017-10-28T01:28:03.226Z,4.00
2017-10-28T01:30:31.554Z,5.70
2017-10-28T01:33:00.649Z,4.90
2017-10-28T01:35:29.004Z,5.67
2017-10-28T01:37:57.306Z,5.50
2017-10-28T01:40:25.604Z,5.87
2017-10-28T01:42:53.922Z,4.33
2017-10-28T01:45:22.220Z,5.17
2017-10-28T01:47:50.555Z,4.87
2017-10-28T01:50:18.851Z,5.40
2017-10-28T01:52:48.753Z,5.43
2017-10-28T01:55:17.078Z,4.90
2017-10-28T01:57:45.397Z,4.67
2017-10-28T02:00:20.611Z,4.40
2017-10-28T02:02:55.650Z,3.93
2017-10-28T02:05:24.997Z,5.93
2017-10-28T02:07:53.308Z,4.40
2017-10-28T02:10:21.648Z,6.37
2017-10-28T02:12:50.714Z,4.00
2017-10-28T02:15:19.276Z,3.70
2017-10-28T02:17:47.602Z,3.50
2017-10-28T02:20:15.890Z,3.70
2017-10-28T02:22:44.989Z,4.27
2017-10-28T02:25:13.296Z,4.13
2017-10-28T02:27:42.414Z,3.90
2017-10-28T02:30:10.810Z,4.00
2017-10-28T02:32:39.126Z,3.10
2017-10-28T02:35:07.449Z,3.33
2017-10-28T02:37:36.522Z,3.23
2017-10-28T02:40:04.832Z,2.63
2017-10-28T02:42:33.161Z,2.70
2017-10-28T02:45:02.233Z,3.40
2017-10-28T02:47:30.523Z,2.97
2017-10-28T02:49:58.862Z,3.20
2017-10-28T02:52:27.165Z,3.13
2017-10-28T02:54:55.489Z,3.27
2017-10-28T02:57:24.557Z,3.00
2017-10-28T02:59:52.890Z,2.90
2017-10-28T03:02:21.218Z,2.90
2017-10-28T03:04:50.283Z,3.53
2017-10-28T03:07:18.644Z,5.40
2017-10-28T03:09:47.726Z,3.80
2017-10-28T03:12:16.072Z,3.40
2017-10-28T03:14:45.130Z,2.50
2017-10-28T03:17:13.468Z,3.37
2017-10-28T03:19:41.776Z,2.60
2017-10-28T03:22:10.089Z,3.30
2017-10-28T03:24:38.428Z,2.70
2017-10-28T03:27:06.722Z,3.63
2017-10-28T03:29:35.050Z,3.10
2017-10-28T03:32:03.376Z,2.30
2017-10-28T03:34:31.731Z,2.87
2017-10-28T03:37:00.030Z,3.17
2017-10-28T03:39:28.324Z,2.20
2017-10-28T03:41:56.635Z,2.70
2017-10-28T03:44:24.943Z,2.57
2017-10-28T03:46:53.445Z,2.53
2017-10-28T03:49:21.741Z,2.20
2017-10-28T03:51:50.061Z,2.67
2017-10-28T03:54:18.434Z,2.70
2017-10-28T03:56:46.801Z,2.90
2017-10-28T03:59:15.105Z,2.70
2017-10-28T04:01:43.446Z,2.80
2017-10-28T04:04:11.788Z,3.07
2017-10-28T04:06:40.125Z,2.63
2017-10-28T04:09:08.426Z,3.10
2017-10-28T04:11:36.727Z,2.50
2017-10-28T04:14:05.058Z,2.50
2017-10-28T04:16:34.110Z,2.77
2017-10-28T04:19:02.397Z,2.63
2017-10-28T04:21:30.700Z,3.30
2017-10-28T04:23:59.073Z,2.67
2017-10-28T04:26:28.156Z,2.70
2017-10-28T04:28:56.462Z,3.83
2017-10-28T04:31:24.789Z,2.30
2017-10-28T04:33:53.116Z,3.00
2017-10-28T04:36:21.445Z,3.20
2017-10-28T04:38:49.768Z,2.77
2017-10-28T04:41:18.062Z,3.10
2017-10-28T04:43:46.407Z,2.10
2017-10-28T04:46:15.491Z,2.70
2017-10-28T04:48:43.820Z,2.73
2017-10-28T04:51:12.153Z,3.17
2017-10-28T04:53:41.245Z,2.57
2017-10-28T04:56:09.612Z,3.93
2017-10-28T04:58:37.931Z,2.90
2017-10-28T05:01:06.226Z,2.70
2017-10-28T05:03:34.566Z,2.60
2017-10-28T05:06:03.641Z,2.70
2017-10-28T05:08:31.970Z,2.93
2017-10-28T05:11:00.282Z,2.30
2017-10-28T05:13:28.582Z,3.27
2017-10-28T05:15:56.904Z,2.97
2017-10-28T05:18:25.197Z,2.50
2017-10-28T05:20:53.542Z,2.90
2017-10-28T05:23:22.603Z,3.13
2017-10-28T05:25:50.950Z,2.60
2017-10-28T05:28:19.268Z,2.77
2017-10-28T05:30:47.585Z,2.47
2017-10-28T05:33:15.902Z,2.67
2017-10-28T05:35:44.205Z,2.50
2017-10-28T05:38:12.530Z,2.73
2017-10-28T05:40:40.895Z,2.50
2017-10-28T05:43:09.176Z,2.33
2017-10-28T05:45:38.280Z,3.17
2017-10-28T05:48:06.589Z,2.80
2017-10-28T05:50:34.910Z,2.80
2017-10-28T05:53:04.009Z,2.87
2017-10-28T05:55:32.349Z,2.63
2017-10-28T05:58:00.640Z,3.20
2017-10-28T06:00:29.698Z,2.60
2017-10-28T06:02:58.014Z,2.90
2017-10-28T06:05:26.339Z,2.67
2017-10-28T06:07:54.647Z,2.97
2017-10-28T06:10:23.772Z,3.63
2017-10-28T06:12:52.125Z,2.90
2017-10-28T06:15:20.461Z,2.50
2017-10-28T06:17:49.653Z,2.63
2017-10-28T06:20:18.076Z,2.67
2017-10-28T06:22:46.373Z,2.30
2017-10-28T06:25:14.748Z,2.20
2017-10-28T06:27:43.810Z,2.73
2017-10-28T06:30:12.155Z,2.37
2017-10-28T06:32:40.464Z,2.50
2017-10-28T06:35:08.745Z,3.13
2017-10-28T06:37:38.069Z,2.53
2017-10-28T06:40:06.403Z,3.07
2017-10-28T06:42:35.569Z,3.33
2017-10-28T06:45:03.881Z,2.90
2017-10-28T06:47:32.234Z,3.83
2017-10-28T06:50:01.294Z,3.93
2017-10-28T06:52:29.715Z,4.17
2017-10-28T06:54:58.049Z,3.67
2017-10-28T06:57:26.346Z,3.37
2017-10-28T06:59:54.666Z,3.10
2017-10-28T07:02:23.008Z,3.60
2017-10-28T07:04:51.337Z,3.57
2017-10-28T07:07:19.618Z,3.80
2017-10-28T07:09:47.925Z,3.37
2017-10-28T07:12:16.250Z,4.00
2017-10-28T07:14:44.557Z,3.60
2017-10-28T07:17:12.852Z,3.97
2017-10-28T07:19:41.157Z,4.47
2017-10-28T07:22:09.465Z,4.63
2017-10-28T07:24:37.788Z,4.10
2017-10-28T07:27:06.843Z,3.90
2017-10-28T07:29:35.137Z,4.20
2017-10-28T07:32:03.500Z,4.13
2017-10-28T07:34:31.835Z,3.60
2017-10-28T07:37:00.949Z,3.57
2017-10-28T07:39:30.059Z,4.73
2017-10-28T07:41:58.424Z,4.03
2017-10-28T07:44:27.507Z,3.53
2017-10-28T07:46:55.798Z,2.90
2017-10-28T07:49:24.113Z,3.20
2017-10-28T07:51:52.431Z,4.00
2017-10-28T07:54:20.827Z,2.97
2017-10-28T07:56:49.138Z,3.00
2017-10-28T07:59:17.452Z,2.83
2017-10-28T08:01:45.744Z,4.00
2017-10-28T08:04:19.678Z,3.30
2017-10-28T08:06:48.008Z,3.83
2017-10-28T08:09:16.335Z,2.40
2017-10-28T08:11:44.617Z,2.80
2017-10-28T08:14:12.959Z,2.67
2017-10-28T08:16:41.307Z,3.17
2017-10-28T08:19:10.543Z,3.40
2017-10-28T08:21:38.866Z,2.47
2017-10-28T08:24:07.237Z,3.00
2017-10-28T08:26:36.585Z,2.50
2017-10-28T08:29:04.910Z,2.97
2017-10-28T08:31:34.005Z,3.43
2017-10-28T08:34:03.298Z,4.03
2017-10-28T08:36:31.598Z,3.07
2017-10-28T08:39:01.894Z,3.43
2017-10-28T08:41:30.278Z,2.47
2017-10-28T08:43:58.591Z,3.10
2017-10-28T08:46:26.928Z,3.03
2017-10-28T08:48:55.257Z,3.00
2017-10-28T08:51:25.278Z,3.00
2017-10-28T08:53:55.239Z,3.20
2017-10-28T08:56:23.662Z,3.37
2017-10-28T08:58:51.982Z,4.10
2017-10-28T09:01:21.047Z,2.87
2017-10-28T09:03:49.369Z,3.47
2017-10-28T09:06:17.673Z,3.30
2017-10-28T09:08:45.975Z,3.33
2017-10-28T09:11:14.260Z,3.80
2017-10-28T09:14:00.613Z,2.43
2017-10-28T09:16:28.956Z,2.50
2017-10-28T09:18:57.315Z,3.43
2017-10-28T09:21:25.644Z,3.03
2017-10-28T09:23:55.623Z,2.53
2017-10-28T09:26:23.965Z,3.03
2017-10-28T09:28:53.073Z,3.80
2017-10-28T09:31:21.424Z,4.07
2017-10-28T09:33:49.714Z,3.37
2017-10-28T09:36:18.007Z,3.20
2017-10-28T09:38:46.287Z,2.50
2017-10-28T09:41:14.615Z,2.90
2017-10-28T09:43:42.913Z,3.50
2017-10-28T09:46:11.970Z,2.43
2017-10-28T09:48:40.296Z,3.40
2017-10-28T09:51:08.575Z,3.27
2017-10-28T09:53:36.856Z,2.70
2017-10-28T09:56:05.153Z,2.53
2017-10-28T09:58:33.451Z,3.40
2017-10-28T10:01:01.765Z,3.90
2017-10-28T10:03:30.081Z,3.30
2017-10-28T10:05:58.390Z,3.33
2017-10-28T10:08:26.675Z,3.27
2017-10-28T10:10:55.004Z,3.53
2017-10-28T10:13:23.640Z,3.13
2017-10-28T10:15:52.793Z,3.10
2017-10-28T10:18:21.085Z,3.07
2017-10-28T10:20:50.331Z,2.53
2017-10-28T10:23:18.667Z,3.33
2017-10-28T10:25:46.952Z,2.97
2017-10-28T10:28:15.263Z,3.60
2017-10-28T10:30:43.589Z,3.17
2017-10-28T10:33:11.903Z,2.80
2017-10-28T10:35:40.202Z,4.10
2017-10-28T10:38:08.519Z,3.37
2017-10-28T10:40:36.823Z,3.20
2017-10-28T10:43:05.127Z,3.10
2017-10-28T10:45:34.208Z,9.23
2017-10-28T10:48:03.284Z,3.57
2017-10-28T10:50:31.593Z,2.90
2017-10-28T10:52:59.921Z,3.60
2017-10-28T10:55:29.014Z,3.57
2017-10-28T10:57:57.330Z,2.97
2017-10-28T11:00:25.625Z,4.10
2017-10-28T11:02:53.963Z,3.90
2017-10-28T11:05:22.361Z,3.50
2017-10-28T11:07:51.194Z,4.77
2017-10-28T11:10:19.531Z,4.17
2017-10-28T11:12:47.885Z,4.47
2017-10-28T11:15:16.219Z,3.93
2017-10-28T11:17:45.286Z,3.53
2017-10-28T11:20:14.359Z,3.70
2017-10-28T11:22:43.435Z,3.87
2017-10-28T11:25:19.154Z,3.47
2017-10-28T11:27:47.511Z,3.10
2017-10-28T11:30:15.863Z,3.40
2017-10-28T11:32:44.216Z,4.40
2017-10-28T11:35:12.577Z,3.00
2017-10-28T11:37:40.879Z,3.47
2017-10-28T11:40:09.163Z,3.60
2017-10-28T11:42:38.236Z,2.87
2017-10-28T11:45:06.528Z,4.50
2017-10-28T11:47:34.896Z,3.70
2017-10-28T11:50:03.175Z,3.40
2017-10-28T11:52:31.560Z,3.37
2017-10-28T11:55:00.651Z,4.00
2017-10-28T11:57:29.009Z,4.23
2017-10-28T11:59:57.343Z,2.83
2017-10-28T12:02:26.438Z,3.50
2017-10-28T12:04:55.750Z,3.90
2017-10-28T12:07:24.094Z,3.67
2017-10-28T12:09:53.985Z,4.00
2017-10-28T12:12:23.362Z,3.50
2017-10-28T12:14:51.666Z,3.00
2017-10-28T12:17:19.980Z,2.80
2017-10-28T12:19:48.300Z,3.80
2017-10-28T12:22:16.603Z,3.63
2017-10-28T12:24:45.657Z,3.60
2017-10-28T12:27:13.976Z,3.13
2017-10-28T12:29:42.293Z,4.33
2017-10-28T12:32:11.370Z,3.53
2017-10-28T12:34:40.424Z,4.20
2017-10-28T12:37:08.764Z,3.53
2017-10-28T12:39:37.048Z,3.60
2017-10-28T12:42:05.375Z,3.67
2017-10-28T12:44:33.678Z,2.83
2017-10-28T12:47:01.985Z,3.30
2017-10-28T12:49:30.321Z,4.57
2017-10-28T12:51:58.622Z,3.90
2017-10-28T12:54:26.899Z,4.17
2017-10-28T12:56:56.235Z,4.27
2017-10-28T12:59:25.341Z,3.63
2017-10-28T13:01:53.622Z,5.33
2017-10-28T13:04:21.932Z,3.93
2017-10-28T13:06:50.221Z,3.77
2017-10-28T13:09:18.543Z,3.80
2017-10-28T13:11:47.624Z,4.30
2017-10-28T13:14:15.952Z,3.60
2017-10-28T13:16:44.276Z,4.43
2017-10-28T13:19:12.607Z,4.13
2017-10-28T13:21:40.888Z,4.30
2017-10-28T13:24:09.326Z,3.93
2017-10-28T13:26:39.499Z,3.40
2017-10-28T13:29:07.859Z,3.87
2017-10-28T13:31:36.174Z,4.03
2017-10-28T13:34:04.467Z,3.20
2017-10-28T13:36:34.755Z,2.43
2017-10-28T13:39:03.039Z,4.17
2017-10-28T13:41:31.325Z,3.63
2017-10-28T13:43:59.684Z,3.20
2017-10-28T13:46:27.970Z,3.30
2017-10-28T13:48:56.283Z,3.73
2017-10-28T13:51:24.620Z,3.60
2017-10-28T13:53:53.142Z,2.70
2017-10-28T13:56:21.493Z,3.77
2017-10-28T13:58:49.795Z,4.50
2017-10-28T14:01:18.102Z,3.17
2017-10-28T14:03:46.417Z,7.23
2017-10-28T14:06:14.701Z,3.13
2017-10-28T14:08:43.042Z,2.97
2017-10-28T14:11:12.088Z,3.80
2017-10-28T14:13:40.393Z,2.90
2017-10-28T14:16:08.691Z,2.80
2017-10-28T14:18:37.069Z,2.90
2017-10-28T14:21:05.538Z,2.80
2017-10-28T14:23:33.842Z,3.27
2017-10-28T14:26:02.179Z,2.97
2017-10-28T14:28:30.469Z,3.00
2017-10-28T14:30:59.705Z,2.67
2017-10-28T14:33:28.787Z,2.40
2017-10-28T14:35:57.143Z,2.90
2017-10-28T14:38:25.439Z,3.33
2017-10-28T14:40:53.813Z,3.00
2017-10-28T14:43:22.957Z,3.10
2017-10-28T14:45:51.280Z,2.77
2017-10-28T14:48:19.666Z,4.17
2017-10-28T14:50:51.791Z,2.70
2017-10-28T14:53:20.116Z,2.17
2017-10-28T14:55:48.399Z,3.03
2017-10-28T14:58:16.759Z,3.57
2017-10-28T15:00:45.826Z,2.53
2017-10-28T15:03:14.124Z,3.60
2017-10-28T15:05:42.434Z,2.10
2017-10-28T15:08:11.505Z,2.53
2017-10-28T15:10:39.816Z,1.90
2017-10-28T15:13:08.151Z,2.60
2017-10-28T15:15:36.461Z,2.20
2017-10-28T15:18:04.810Z,2.53
2017-10-28T15:20:33.126Z,2.57
2017-10-28T15:23:01.452Z,2.20
2017-10-28T15:25:29.782Z,2.53
2017-10-28T15:27:58.856Z,2.20
2017-10-28T15:30:27.215Z,2.73
2017-10-28T15:32:55.549Z,2.13
2017-10-28T15:35:23.882Z,2.53
2017-10-28T15:37:53.030Z,2.50
2017-10-28T15:40:21.343Z,2.47
2017-10-28T15:42:49.626Z,2.40
2017-10-28T15:45:17.944Z,2.20
2017-10-28T15:47:46.279Z,1.83
2017-10-28T15:50:14.655Z,2.50
2017-10-28T15:52:42.945Z,2.63
2017-10-28T15:55:11.999Z,2.47
2017-10-28T15:57:40.330Z,3.10
2017-10-28T16:00:08.645Z,2.53
2017-10-28T16:02:37.742Z,2.40
2017-10-28T16:05:06.072Z,2.40
2017-10-28T16:07:34.364Z,1.50
2017-10-28T16:10:05.809Z,2.23
2017-10-28T16:12:34.153Z,2.57
2017-10-28T16:15:02.489Z,2.23
2017-10-28T16:17:30.819Z,2.27
2017-10-28T16:19:59.401Z,2.00
2017-10-28T16:22:27.728Z,2.13
2017-10-28T16:24:56.104Z,1.67
2017-10-28T16:27:25.607Z,2.17
2017-10-28T16:29:53.988Z,1.80
2017-10-28T16:32:23.374Z,2.57
2017-10-28T16:34:51.725Z,1.97
2017-10-28T16:37:20.037Z,2.57
2017-10-28T16:39:49.133Z,2.50
2017-10-28T16:42:17.523Z,3.10
2017-10-28T16:44:45.815Z,2.10
2017-10-28T16:47:14.120Z,2.03
2017-10-28T16:49:42.523Z,1.93
2017-10-28T16:52:10.828Z,2.23
2017-10-28T16:54:40.147Z,2.30
2017-10-28T16:57:08.495Z,2.60
2017-10-28T16:59:37.633Z,2.03
2017-10-28T17:02:06.902Z,2.07
2017-10-28T17:04:35.206Z,2.23
2017-10-28T17:07:03.537Z,2.37
2017-10-28T17:09:31.824Z,2.10
2017-10-28T17:12:00.155Z,1.97
2017-10-28T17:14:29.271Z,2.23
2017-10-28T17:16:58.364Z,2.30
2017-10-28T17:19:26.643Z,2.40
2017-10-28T17:21:55.047Z,2.10
2017-10-28T17:24:23.410Z,2.33
2017-10-28T17:26:51.717Z,2.20
2017-10-28T17:29:20.008Z,2.83
2017-10-28T17:31:48.333Z,1.63
2017-10-28T17:34:20.453Z,2.23
2017-10-28T17:36:48.793Z,1.70
2017-10-28T17:39:17.872Z,2.63
2017-10-28T17:41:46.166Z,1.80
2017-10-28T17:44:14.499Z,2.90
2017-10-28T17:46:42.824Z,3.13
2017-10-28T17:49:11.904Z,2.77
2017-10-28T17:51:43.743Z,4.13
2017-10-28T17:54:12.071Z,2.57
2017-10-28T17:56:40.420Z,2.23
2017-10-28T17:59:09.506Z,2.10
2017-10-28T18:01:38.772Z,2.13
2017-10-28T18:04:07.104Z,2.10
2017-10-28T18:06:36.415Z,2.40
2017-10-28T18:09:05.523Z,2.50
2017-10-28T18:11:34.802Z,3.23
2017-10-28T18:14:03.096Z,2.20
2017-10-28T18:16:31.426Z,1.97
2017-10-28T18:19:00.743Z,2.90
2017-10-28T18:21:29.062Z,2.60
2017-10-28T18:23:57.423Z,3.30
2017-10-28T18:26:25.895Z,2.33
2017-10-28T18:28:54.953Z,3.20
2017-10-28T18:31:23.286Z,3.27
2017-10-28T18:33:51.645Z,2.53
2017-10-28T18:36:20.703Z,2.73
2017-10-28T18:38:50.090Z,2.53
2017-10-28T18:41:21.965Z,3.50
2017-10-28T18:43:50.284Z,2.70
2017-10-28T18:46:19.335Z,3.07
2017-10-28T18:48:47.687Z,1.87
2017-10-28T18:51:15.970Z,2.17
2017-10-28T18:53:44.308Z,2.60
2017-10-28T18:56:12.638Z,2.57
2017-10-28T18:58:40.951Z,3.57
2017-10-28T19:01:09.275Z,3.57
2017-10-28T19:03:38.627Z,3.87
2017-10-28T19:06:07.689Z,3.00
2017-10-28T19:08:36.020Z,3.00
2017-10-28T19:11:04.331Z,3.53
2017-10-28T19:13:32.607Z,3.33
2017-10-28T19:16:01.043Z,2.70
2017-10-28T19:18:29.333Z,3.00
2017-10-28T19:20:57.659Z,2.90
2017-10-28T19:23:25.988Z,3.60
2017-10-28T19:25:54.286Z,3.43
2017-10-28T19:28:22.702Z,3.07
2017-10-28T19:30:51.939Z,3.00
2017-10-28T19:33:20.259Z,2.80
2017-10-28T19:35:50.571Z,3.90
2017-10-28T19:38:19.852Z,3.63
2017-10-28T19:40:48.155Z,3.67
2017-10-28T19:43:16.431Z,3.33
2017-10-28T19:45:45.000Z,3.00
2017-10-28T19:48:14.255Z,3.33
2017-10-28T19:50:42.874Z,4.90
2017-10-28T19:53:11.208Z,3.57
2017-10-28T19:55:39.548Z,4.10
2017-10-28T19:58:08.616Z,2.93
2017-10-28T20:00:36.914Z,3.97
2017-10-28T20:03:05.242Z,3.70
2017-10-28T20:05:34.292Z,4.17
2017-10-28T20:08:02.625Z,4.17
2017-10-28T20:10:31.104Z,3.83
2017-10-28T20:12:59.430Z,3.67
2017-10-28T20:15:27.849Z,3.30
2017-10-28T20:17:56.285Z,3.30
2017-10-28T20:20:24.760Z,3.63
2017-10-28T20:22:53.086Z,3.03
2017-10-28T20:25:21.395Z,3.70
2017-10-28T20:27:50.510Z,4.60
2017-10-28T20:30:19.583Z,5.23
2017-10-28T20:32:57.831Z,3.53
2017-10-28T20:35:26.183Z,3.73
2017-10-28T20:37:54.519Z,4.33
2017-10-28T20:40:22.848Z,3.67
2017-10-28T20:42:55.878Z,3.73
2017-10-28T20:45:24.990Z,4.57
2017-10-28T20:47:53.313Z,5.03
2017-10-28T20:50:21.659Z,3.50
2017-10-28T20:52:50.064Z,4.50
2017-10-28T20:55:18.408Z,3.90
2017-10-28T20:57:47.680Z,3.27
2017-10-28T21:00:16.004Z,3.73
2017-10-28T21:02:44.312Z,4.03
2017-10-28T21:05:12.663Z,4.50
2017-10-28T21:07:41.767Z,4.70
2017-10-28T21:10:10.113Z,5.63
2017-10-28T21:12:38.420Z,4.27
2017-10-28T21:15:16.499Z,4.03
2017-10-28T21:17:44.860Z,4.03
2017-10-28T21:20:17.361Z,5.37
2017-10-28T21:22:51.964Z,5.53
2017-10-28T21:25:20.316Z,3.97
2017-10-28T21:27:48.647Z,4.10
2017-10-28T21:30:16.968Z,4.10
2017-10-28T21:32:47.137Z,4.33
2017-10-28T21:35:16.394Z,4.03
2017-10-28T21:37:45.640Z,3.53
2017-10-28T21:40:13.947Z,3.70
2017-10-28T21:42:43.284Z,3.60
2017-10-28T21:45:12.958Z,3.77
2017-10-28T21:47:51.779Z,3.13
2017-10-28T21:50:22.116Z,3.87
2017-10-28T21:52:50.402Z,3.57
2017-10-28T21:55:19.133Z,2.90
2017-10-28T21:57:47.801Z,3.20
2017-10-28T22:00:16.998Z,3.60
2017-10-28T22:02:45.324Z,3.10
2017-10-28T22:05:13.706Z,3.70
2017-10-28T22:07:42.044Z,2.90
2017-10-28T22:10:10.383Z,3.03
2017-10-28T22:12:38.704Z,3.00
2017-10-28T22:15:07.780Z,3.27
2017-10-28T22:17:36.144Z,2.90
2017-10-28T22:20:09.202Z,3.03
2017-10-28T22:22:37.844Z,2.70
2017-10-28T22:25:06.951Z,2.57
2017-10-28T22:27:35.305Z,2.93
2017-10-28T22:30:03.670Z,2.53
2017-10-28T22:32:31.972Z,2.93
2017-10-28T22:35:01.047Z,2.57
2017-10-28T22:37:29.377Z,2.70
2017-10-28T22:39:57.704Z,2.70
2017-10-28T22:42:26.316Z,3.03
2017-10-28T22:44:55.408Z,2.23
2017-10-28T22:47:23.744Z,2.53
2017-10-28T22:49:52.791Z,2.87
2017-10-28T22:52:21.158Z,2.47
2017-10-28T22:54:50.283Z,2.23
2017-10-28T22:57:18.625Z,2.80
2017-10-28T22:59:46.955Z,3.17
2017-10-28T23:02:15.258Z,3.03
2017-10-28T23:04:43.626Z,3.00
2017-10-28T23:07:11.939Z,2.60
2017-10-28T23:09:40.253Z,2.93
2017-10-28T23:12:08.628Z,3.27
2017-10-28T23:14:36.940Z,3.87
2017-10-28T23:17:05.240Z,3.17
2017-10-28T23:19:33.563Z,3.20
2017-10-28T23:22:01.847Z,3.00
2017-10-28T23:24:30.150Z,3.30
2017-10-28T23:27:00.412Z,3.40
2017-10-28T23:29:28.731Z,3.30
2017-10-28T23:31:57.023Z,4.00
2017-10-28T23:34:25.366Z,3.13
2017-10-28T23:36:53.691Z,2.80
2017-10-28T23:39:22.000Z,3.00
2017-10-28T23:41:50.304Z,3.30
2017-10-28T23:44:18.603Z,3.60
2017-10-28T23:46:46.951Z,3.87
2017-10-28T23:49:16.004Z,2.43
2017-10-28T23:51:44.416Z,2.57
2017-10-28T23:54:12.721Z,2.33
2017-10-28T23:56:41.008Z,2.60
2017-10-28T23:59:09.349Z,2.37
